Terminal Aerodrome Forecast
Issued by NWS

Home | Current Version | Previous Version | Text Only | Print | Product List | Glossary On
Versions: 1 2 3 4 5 6 7 8 9 10 11 12 13 14 15 16
000
FTUS41 KGYX 301121
TAFRKD
TAF
KRKD 301121Z 3012/3112 22003KT P6SM FEW250
     FM301600 20010KT P6SM SCT250
     FM310900 21008KT 1SM BR OVC004
      AMD LTD TO CLD VIS AND WIND=

USA.gov is the U.S. government's official web portal to all federal, state and local government web resources and services.